Zylks, Louisiana
Current Conditions -  °F | °C
As of 4:53 AM on Wednesday 26 Nov 2014 (Local Time) from KTXK Reporting Station
Clear Clear  
Wind Chill: 34°   Ceiling: Unl
Heat Index: 40°   Visibility: 10mi
Dew Point: 32°   Wind: 8mph
Humidity: 73%   Direction: 200°SSW
Pressure: 30.08"   Gusts: NA
Location:  32.9696°N, 93.9801°W
Report Text: KTXK 261053Z AUTO 20007KT 10SM CLR 04/00 A3008 RMK AO2 SLP184 T00440000
Loading
Personal Weather Stations






























Interactive Weather Map New forecast layout! Learn more

10-Day Weather Forecast

Advertisements
Track Severe Weather on mobile